createdAt,value
2023-12-09T00:00:38.244Z,101065.03
2023-12-09T00:03:04.982Z,101069.34
2023-12-09T00:05:31.665Z,101050.59
2023-12-09T00:07:58.125Z,101063.44
2023-12-09T00:10:24.596Z,101059.88
2023-12-09T00:12:51.037Z,101059.13
2023-12-09T00:15:17.677Z,101057.31
2023-12-09T00:17:44.516Z,101058.25
2023-12-09T00:20:11.325Z,101055.59
2023-12-09T00:22:37.783Z,101058.22
2023-12-09T00:25:04.986Z,101063.31
2023-12-09T00:27:31.577Z,101059.97
2023-12-09T00:29:58.008Z,101055.75
2023-12-09T00:32:24.855Z,101055.78
2023-12-09T00:34:51.484Z,101050.63
2023-12-09T00:37:17.923Z,101044.56
2023-12-09T00:39:44.339Z,101045.44
2023-12-09T00:42:11.533Z,101044.63
2023-12-09T00:44:38.001Z,101037.72
2023-12-09T00:47:04.557Z,101034.28
2023-12-09T00:49:31.199Z,101042.00
2023-12-09T00:51:57.666Z,101033.44
2023-12-09T00:54:24.188Z,101033.38
2023-12-09T00:56:50.799Z,101026.69
2023-12-09T00:59:17.270Z,101031.66
2023-12-09T01:01:43.717Z,101034.19
2023-12-09T01:04:10.293Z,101025.75
2023-12-09T01:06:36.812Z,101020.63
2023-12-09T01:09:03.456Z,101029.19
2023-12-09T01:11:29.971Z,101029.09
2023-12-09T01:13:56.360Z,101023.91
2023-12-09T01:16:22.802Z,101029.06
2023-12-09T01:18:49.491Z,101021.41
2023-12-09T01:21:16.335Z,101008.59
2023-12-09T01:23:42.806Z,101010.31
2023-12-09T01:26:09.352Z,101023.91
2023-12-09T01:28:35.776Z,101018.72
2023-12-09T01:31:02.243Z,101027.34
2023-12-09T01:33:28.846Z,101017.88
2023-12-09T01:35:55.384Z,101008.53
2023-12-09T01:38:21.850Z,101014.56
2023-12-09T01:40:54.969Z,101013.53
2023-12-09T01:43:21.621Z,101019.50
2023-12-09T01:45:48.090Z,101017.88
2023-12-09T01:48:14.712Z,101003.28
2023-12-09T01:50:41.250Z,101007.50
2023-12-09T01:53:07.721Z,101008.44
2023-12-09T01:55:34.247Z,100998.94
2023-12-09T01:58:00.787Z,100988.56
2023-12-09T02:00:27.173Z,100990.28
2023-12-09T02:02:53.816Z,100991.25
2023-12-09T02:05:20.454Z,100983.41
2023-12-09T02:07:46.912Z,100996.31
2023-12-09T02:10:13.370Z,100985.97
2023-12-09T02:13:09.528Z,100994.66
2023-12-09T02:15:40.499Z,100993.88
2023-12-09T02:18:07.280Z,100985.28
2023-12-09T02:20:34.187Z,100982.66
2023-12-09T02:23:07.479Z,100979.28
2023-12-09T02:25:34.169Z,100960.31
2023-12-09T02:28:01.807Z,100969.84
2023-12-09T02:30:37.566Z,100962.97
2023-12-09T02:33:04.924Z,100961.94
2023-12-09T02:35:31.467Z,100957.66
2023-12-09T02:37:58.150Z,100954.09
2023-12-09T02:40:24.572Z,100950.78
2023-12-09T02:42:51.239Z,100942.31
2023-12-09T02:45:18.876Z,100936.31
2023-12-09T02:47:46.997Z,100929.44
2023-12-09T02:50:13.607Z,100935.50
2023-12-09T02:52:40.465Z,100922.59
2023-12-09T02:55:07.505Z,100929.53
2023-12-09T02:57:34.055Z,100929.44
2023-12-09T03:00:00.988Z,100914.91
2023-12-09T03:02:27.741Z,100915.81
2023-12-09T03:04:54.347Z,100920.19
2023-12-09T03:07:21.823Z,100929.44
2023-12-09T03:09:48.381Z,100926.88
2023-12-09T03:12:14.899Z,100927.72
2023-12-09T03:14:41.358Z,100931.19
2023-12-09T03:17:07.786Z,100935.53
2023-12-09T03:19:34.471Z,100926.13
2023-12-09T03:22:01.094Z,100915.84
2023-12-09T03:24:27.581Z,100914.94
2023-12-09T03:26:54.286Z,100913.97
2023-12-09T03:29:21.047Z,100912.28
2023-12-09T03:31:47.990Z,100905.44
2023-12-09T03:34:14.634Z,100901.13
2023-12-09T03:36:41.647Z,100917.50
2023-12-09T03:39:08.374Z,100904.66
2023-12-09T03:41:35.125Z,100910.69
2023-12-09T03:44:01.891Z,100918.41
2023-12-09T03:46:28.364Z,100924.44
2023-12-09T03:48:54.925Z,100932.09
2023-12-09T03:51:21.498Z,100923.56
2023-12-09T03:53:47.977Z,100910.69
2023-12-09T03:56:17.037Z,100910.00
2023-12-09T03:58:43.548Z,100897.09
2023-12-09T04:01:10.380Z,100900.38
2023-12-09T04:03:36.944Z,100899.94
2023-12-09T04:06:04.977Z,100903.38
2023-12-09T04:08:32.116Z,100895.66
2023-12-09T04:10:58.549Z,100896.25
2023-12-09T04:13:25.065Z,100894.72
2023-12-09T04:15:51.468Z,100891.38
2023-12-09T04:18:18.606Z,100902.41
2023-12-09T04:20:45.277Z,100901.31
2023-12-09T04:23:11.830Z,100898.03
2023-12-09T04:25:38.231Z,100899.78
2023-12-09T04:28:04.803Z,100902.44
2023-12-09T04:30:31.284Z,100896.47
2023-12-09T04:32:57.834Z,100902.50
2023-12-09T04:35:24.313Z,100899.03
2023-12-09T04:37:50.685Z,100899.69
2023-12-09T04:40:18.837Z,100898.84
2023-12-09T04:42:45.664Z,100903.25
2023-12-09T04:45:12.155Z,100897.28
2023-12-09T04:47:39.711Z,100898.16
2023-12-09T04:50:12.456Z,100897.16
2023-12-09T04:52:38.960Z,100886.84
2023-12-09T04:55:05.725Z,100892.16
2023-12-09T04:57:32.517Z,100893.13
2023-12-09T04:59:59.116Z,100891.34
2023-12-09T05:02:25.875Z,100890.50
2023-12-09T05:04:54.131Z,100885.25
2023-12-09T05:07:20.597Z,100878.38
2023-12-09T05:09:47.093Z,100890.44
2023-12-09T05:12:13.627Z,100873.41
2023-12-09T05:14:40.321Z,100877.66
2023-12-09T05:17:06.802Z,100867.47
2023-12-09T05:19:33.533Z,100865.59
2023-12-09T05:22:01.108Z,100866.50
2023-12-09T05:24:27.732Z,100883.63
2023-12-09T05:26:54.307Z,100871.63
2023-12-09T05:29:20.763Z,100866.44
2023-12-09T05:31:47.265Z,100881.78
2023-12-09T05:34:13.890Z,100884.25
2023-12-09T05:36:40.400Z,100879.16
2023-12-09T05:39:06.940Z,100887.81
2023-12-09T05:41:33.431Z,100871.63
2023-12-09T05:43:59.931Z,100878.47
2023-12-09T05:46:26.351Z,100879.13
2023-12-09T05:48:53.305Z,100877.47
2023-12-09T05:51:19.983Z,100869.78
2023-12-09T05:53:46.443Z,100863.81
2023-12-09T05:56:13.111Z,100874.09
2023-12-09T05:58:40.384Z,100862.88
2023-12-09T06:01:07.270Z,100859.53
2023-12-09T06:03:33.917Z,100876.78
2023-12-09T06:06:00.467Z,100886.00
2023-12-09T06:08:27.025Z,100887.00
2023-12-09T06:10:53.590Z,100884.47
2023-12-09T06:13:20.027Z,100881.97
2023-12-09T06:15:48.799Z,100881.03
2023-12-09T06:18:16.887Z,100857.94
2023-12-09T06:20:43.408Z,100855.38
2023-12-09T06:23:09.961Z,100858.09
2023-12-09T06:25:36.450Z,100853.69
2023-12-09T06:28:03.466Z,100858.78
2023-12-09T06:30:30.590Z,100862.16
2023-12-09T06:32:57.211Z,100858.88
2023-12-09T06:35:23.842Z,100864.91
2023-12-09T06:37:50.241Z,100861.34
2023-12-09T06:40:16.773Z,100865.66
2023-12-09T06:42:43.268Z,100865.66
2023-12-09T06:45:09.931Z,100863.09
2023-12-09T06:47:36.759Z,100865.69
2023-12-09T06:50:03.604Z,100869.06
2023-12-09T06:52:30.292Z,100866.59
2023-12-09T06:54:56.765Z,100864.78
2023-12-09T06:57:23.257Z,100865.81
2023-12-09T06:59:49.743Z,100860.69
2023-12-09T07:02:16.237Z,100846.78
2023-12-09T07:04:42.741Z,100848.56
2023-12-09T07:07:15.966Z,100852.84
2023-12-09T07:09:45.449Z,100846.91
2023-12-09T07:12:11.917Z,100846.06
2023-12-09T07:14:38.363Z,100849.47
2023-12-09T07:17:04.946Z,100848.59
2023-12-09T07:19:31.441Z,100845.19
2023-12-09T07:21:57.920Z,100849.47
2023-12-09T07:24:24.474Z,100849.59
2023-12-09T07:26:51.005Z,100840.03
2023-12-09T07:29:17.509Z,100841.88
2023-12-09T07:31:43.974Z,100843.59
2023-12-09T07:34:16.776Z,100841.03
2023-12-09T07:36:43.722Z,100841.84
2023-12-09T07:39:10.330Z,100835.88
2023-12-09T07:41:36.984Z,100834.97
2023-12-09T07:44:03.518Z,100838.34
2023-12-09T07:46:30.025Z,100832.34
2023-12-09T07:48:56.616Z,100831.59
2023-12-09T07:51:23.400Z,100832.47
2023-12-09T07:53:50.680Z,100833.28
2023-12-09T07:56:17.105Z,100823.00
2023-12-09T07:58:43.603Z,100824.84
2023-12-09T08:01:11.453Z,100826.56
2023-12-09T08:03:38.915Z,100820.59
2023-12-09T08:06:05.713Z,100820.53
2023-12-09T08:08:32.275Z,100815.34
2023-12-09T08:10:59.995Z,100811.13
2023-12-09T08:13:26.432Z,100816.19
2023-12-09T08:15:53.108Z,100808.41
2023-12-09T08:18:19.798Z,100813.63
2023-12-09T08:20:47.088Z,100817.09
2023-12-09T08:23:13.649Z,100811.03
2023-12-09T08:25:40.464Z,100817.09
2023-12-09T08:28:10.274Z,100822.22
2023-12-09T08:30:36.879Z,100823.00
2023-12-09T08:33:03.729Z,100817.06
2023-12-09T08:35:31.863Z,100809.50
2023-12-09T08:37:58.448Z,100817.22
2023-12-09T08:40:25.032Z,100814.72
2023-12-09T08:42:51.497Z,100817.97
2023-12-09T08:45:18.741Z,100814.50
2023-12-09T08:47:46.102Z,100810.34
2023-12-09T08:50:22.221Z,100805.09
2023-12-09T08:52:51.863Z,100800.81
2023-12-09T08:55:18.461Z,100798.41
2023-12-09T08:57:45.091Z,100795.91
2023-12-09T09:00:11.834Z,100795.06
2023-12-09T09:02:38.335Z,100792.44
2023-12-09T09:05:05.077Z,100795.84
2023-12-09T09:07:31.548Z,100792.38
2023-12-09T09:09:58.052Z,100792.44
2023-12-09T09:12:24.701Z,100782.13
2023-12-09T09:14:51.439Z,100783.81
2023-12-09T09:17:17.874Z,100780.53
2023-12-09T09:19:44.348Z,100778.66
2023-12-09T09:22:10.872Z,100775.47
2023-12-09T09:24:37.714Z,100777.03
2023-12-09T09:27:04.479Z,100773.66
2023-12-09T09:29:30.932Z,100770.25
2023-12-09T09:31:57.375Z,100768.53
2023-12-09T09:34:24.019Z,100759.09
2023-12-09T09:36:50.510Z,100762.41
2023-12-09T09:39:17.430Z,100756.53
2023-12-09T09:42:04.215Z,100754.66
2023-12-09T09:44:30.802Z,100741.75
2023-12-09T09:46:57.644Z,100748.66
2023-12-09T09:49:24.834Z,100746.13
2023-12-09T09:51:53.154Z,100749.63
2023-12-09T09:54:23.263Z,100746.31
2023-12-09T09:56:53.097Z,100748.88
2023-12-09T09:59:19.492Z,100739.53
2023-12-09T10:01:45.966Z,100731.69
2023-12-09T10:04:12.593Z,100733.53
2023-12-09T10:06:39.711Z,100734.34
2023-12-09T10:09:06.807Z,100736.00
2023-12-09T10:11:33.299Z,100729.88
2023-12-09T10:13:59.730Z,100730.84
2023-12-09T10:16:26.183Z,100721.38
2023-12-09T10:18:53.586Z,100720.56
2023-12-09T10:21:20.223Z,100717.22
2023-12-09T10:23:46.908Z,100712.94
2023-12-09T10:26:13.662Z,100705.19
2023-12-09T10:28:40.094Z,100699.25
2023-12-09T10:31:08.855Z,100703.31
2023-12-09T10:33:35.587Z,100701.72
2023-12-09T10:36:02.282Z,100700.06
2023-12-09T10:38:29.263Z,100692.34
2023-12-09T10:40:55.778Z,100682.09
2023-12-09T10:43:22.701Z,100671.72
2023-12-09T10:45:49.219Z,100668.25
2023-12-09T10:48:16.522Z,100667.47
2023-12-09T10:50:45.098Z,100663.19
2023-12-09T10:53:11.618Z,100662.41
2023-12-09T10:55:38.157Z,100665.91
2023-12-09T10:58:05.605Z,100666.78
2023-12-09T11:00:32.546Z,100665.91
2023-12-09T11:02:59.120Z,100658.91
2023-12-09T11:05:25.756Z,100655.53
2023-12-09T11:07:52.333Z,100659.88
2023-12-09T11:10:19.423Z,100666.66
2023-12-09T11:12:47.971Z,100650.41
2023-12-09T11:15:14.590Z,100648.63
2023-12-09T11:17:42.222Z,100652.13
2023-12-09T11:20:15.051Z,100647.94
2023-12-09T11:22:42.258Z,100647.97
2023-12-09T11:25:09.411Z,100647.03
2023-12-09T11:27:36.251Z,100648.75
2023-12-09T11:30:03.021Z,100645.41
2023-12-09T11:32:30.746Z,100640.22
2023-12-09T11:35:00.134Z,100636.72
2023-12-09T11:37:28.945Z,100636.81
2023-12-09T11:39:56.250Z,100633.34
2023-12-09T11:42:23.030Z,100627.34
2023-12-09T11:44:49.609Z,100626.47
2023-12-09T11:47:16.149Z,100635.88
2023-12-09T11:49:44.733Z,100631.63
2023-12-09T11:52:11.314Z,100626.53
2023-12-09T11:54:37.768Z,100626.47
2023-12-09T11:57:04.507Z,100618.81
2023-12-09T11:59:31.021Z,100624.78
2023-12-09T12:01:59.572Z,100627.41
2023-12-09T12:04:27.532Z,100627.41
2023-12-09T12:06:54.112Z,100622.28
2023-12-09T12:09:20.664Z,100627.44
2023-12-09T12:11:47.128Z,100627.41
2023-12-09T12:14:14.312Z,100623.97
2023-12-09T12:16:40.837Z,100624.00
2023-12-09T12:19:07.449Z,100615.53
2023-12-09T12:21:34.099Z,100613.75
2023-12-09T12:24:02.680Z,100626.63
2023-12-09T12:26:29.249Z,100628.34
2023-12-09T12:28:55.754Z,100624.13
2023-12-09T12:31:22.255Z,100618.84
2023-12-09T12:33:49.059Z,100624.19
2023-12-09T12:36:15.706Z,100607.81
2023-12-09T12:38:42.202Z,100607.78
2023-12-09T12:41:09.050Z,100609.63
2023-12-09T12:43:36.510Z,100607.91
2023-12-09T12:46:04.772Z,100605.38
2023-12-09T12:48:32.025Z,100600.97
2023-12-09T12:50:58.642Z,100600.16
2023-12-09T12:53:26.660Z,100603.56
2023-12-09T12:55:55.921Z,100594.13
2023-12-09T12:58:23.137Z,100593.28
2023-12-09T13:00:50.916Z,100589.78
2023-12-09T13:03:17.831Z,100581.28
2023-12-09T13:05:44.633Z,100588.16
2023-12-09T13:08:11.214Z,100583.88
2023-12-09T13:10:37.702Z,100587.28
2023-12-09T13:13:06.702Z,100579.63
2023-12-09T13:15:33.398Z,100580.41
2023-12-09T13:18:00.041Z,100574.38
2023-12-09T13:20:26.705Z,100573.53
2023-12-09T13:22:53.146Z,100570.97
2023-12-09T13:25:19.769Z,100569.34
2023-12-09T13:27:47.012Z,100566.75
2023-12-09T13:30:15.205Z,100560.69
2023-12-09T13:32:42.065Z,100562.44
2023-12-09T13:35:08.766Z,100551.34
2023-12-09T13:37:35.891Z,100564.16
2023-12-09T13:40:02.672Z,100556.44
2023-12-09T13:42:29.749Z,100558.06
2023-12-09T13:44:56.527Z,100551.28
2023-12-09T13:47:23.624Z,100549.56
2023-12-09T13:49:50.357Z,100551.31
2023-12-09T13:52:17.359Z,100545.25
2023-12-09T13:54:44.374Z,100540.13
2023-12-09T13:57:11.192Z,100541.78
2023-12-09T13:59:37.829Z,100542.63
2023-12-09T14:02:04.331Z,100540.97
2023-12-09T14:04:31.001Z,100547.03
2023-12-09T14:06:57.507Z,100543.53
2023-12-09T14:09:24.142Z,100537.53
2023-12-09T14:11:50.926Z,100540.13
2023-12-09T14:14:17.474Z,100529.78
2023-12-09T14:16:44.018Z,100534.97
2023-12-09T14:19:11.749Z,100533.22
2023-12-09T14:21:39.413Z,100528.09
2023-12-09T14:24:06.336Z,100524.66
2023-12-09T14:26:35.274Z,100523.84
2023-12-09T14:29:02.250Z,100525.50
2023-12-09T14:31:31.764Z,100527.25
2023-12-09T14:33:58.638Z,100520.41
2023-12-09T14:36:25.354Z,100515.31
2023-12-09T14:38:51.829Z,100511.84
2023-12-09T14:41:18.386Z,100507.63
2023-12-09T14:43:47.081Z,100509.31
2023-12-09T14:46:14.766Z,100512.72
2023-12-09T14:48:41.444Z,100499.00
2023-12-09T14:51:08.147Z,100501.56
2023-12-09T14:53:34.770Z,100499.06
2023-12-09T14:56:02.016Z,100496.38
2023-12-09T14:58:29.214Z,100502.41
2023-12-09T15:00:56.425Z,100494.69
2023-12-09T15:03:23.123Z,100494.69
2023-12-09T15:05:49.702Z,100484.41
2023-12-09T15:08:16.389Z,100489.53
2023-12-09T15:10:42.886Z,100485.28
2023-12-09T15:13:09.446Z,100483.56
2023-12-09T15:15:36.084Z,100479.25
2023-12-09T15:18:02.831Z,100467.22
2023-12-09T15:20:29.406Z,100456.09
2023-12-09T15:22:56.003Z,100468.94
2023-12-09T15:25:23.317Z,100457.81
2023-12-09T15:27:49.884Z,100447.47
2023-12-09T15:30:16.576Z,100444.03
2023-12-09T15:32:45.427Z,100446.63
2023-12-09T15:35:12.221Z,100444.06
2023-12-09T15:37:38.720Z,100441.47
2023-12-09T15:40:10.263Z,100442.34
2023-12-09T15:42:37.017Z,100442.34
2023-12-09T15:45:04.418Z,100440.63
2023-12-09T15:47:31.176Z,100441.50
2023-12-09T15:49:57.776Z,100438.09
2023-12-09T15:52:24.305Z,100434.66
2023-12-09T15:54:50.769Z,100436.38
2023-12-09T15:57:17.238Z,100424.31
2023-12-09T15:59:43.698Z,100424.31
2023-12-09T16:02:10.274Z,100423.47
2023-12-09T16:04:36.750Z,100419.22
2023-12-09T16:07:03.340Z,100425.22
2023-12-09T16:09:36.342Z,100415.75
2023-12-09T16:12:05.309Z,100421.75
2023-12-09T16:14:31.787Z,100415.72
2023-12-09T16:16:58.610Z,100412.34
2023-12-09T16:19:25.259Z,100401.97
2023-12-09T16:21:51.872Z,100404.53
2023-12-09T16:24:19.610Z,100402.00
2023-12-09T16:26:46.214Z,100405.38
2023-12-09T16:29:12.679Z,100405.44
2023-12-09T16:31:40.110Z,100409.72
2023-12-09T16:34:07.051Z,100410.56
2023-12-09T16:36:34.253Z,100410.59
2023-12-09T16:39:00.868Z,100404.56
2023-12-09T16:41:27.376Z,100396.84
2023-12-09T16:43:53.818Z,100390.81
2023-12-09T16:46:20.277Z,100399.41
2023-12-09T16:48:46.853Z,100395.09
2023-12-09T16:51:13.995Z,100389.94
2023-12-09T16:53:40.573Z,100386.56
2023-12-09T16:56:07.386Z,100391.72
2023-12-09T16:58:34.782Z,100389.16
2023-12-09T17:01:01.367Z,100379.69
2023-12-09T17:03:28.367Z,100371.97
2023-12-09T17:05:54.992Z,100368.50
2023-12-09T17:08:21.536Z,100377.97
2023-12-09T17:10:48.017Z,100366.81
2023-12-09T17:13:14.514Z,100359.09
2023-12-09T17:15:41.024Z,100358.22
2023-12-09T17:18:07.596Z,100353.03
2023-12-09T17:20:34.268Z,100344.44
2023-12-09T17:23:00.789Z,100343.59
2023-12-09T17:25:27.398Z,100353.09
2023-12-09T17:27:53.995Z,100341.91
2023-12-09T17:30:20.700Z,100340.19
2023-12-09T17:32:47.323Z,100342.75
2023-12-09T17:35:13.868Z,100328.97
2023-12-09T17:37:40.363Z,100328.97
2023-12-09T17:40:08.027Z,100322.94
2023-12-09T17:42:34.692Z,100325.53
2023-12-09T17:45:01.305Z,100323.81
2023-12-09T17:47:28.163Z,100326.41
2023-12-09T17:49:54.781Z,100312.66
2023-12-09T17:52:23.046Z,100310.03
2023-12-09T17:54:50.150Z,100307.47
2023-12-09T17:57:16.759Z,100302.31
2023-12-09T17:59:43.266Z,100301.47
2023-12-09T18:02:10.405Z,100304.06
2023-12-09T18:04:36.903Z,100298.88
2023-12-09T18:07:04.544Z,100291.19
2023-12-09T18:09:31.168Z,100286.00
2023-12-09T18:11:59.070Z,100276.59
2023-12-09T18:14:25.657Z,100272.31
2023-12-09T18:16:52.110Z,100262.88
2023-12-09T18:19:20.430Z,100259.41
2023-12-09T18:21:47.109Z,100262.03
2023-12-09T18:24:14.192Z,100259.41
2023-12-09T18:26:42.409Z,100259.38
2023-12-09T18:29:09.135Z,100249.09
2023-12-09T18:31:35.587Z,100245.66
2023-12-09T18:34:02.201Z,100251.66
2023-12-09T18:36:28.807Z,100243.91
2023-12-09T18:38:55.318Z,100239.59
2023-12-09T18:41:21.797Z,100239.63
2023-12-09T18:43:50.058Z,100243.91
2023-12-09T18:46:16.860Z,100233.59
2023-12-09T18:48:43.492Z,100226.69
2023-12-09T18:51:10.076Z,100225.84
2023-12-09T18:53:36.564Z,100221.50
2023-12-09T18:56:04.661Z,100228.38
2023-12-09T18:58:31.382Z,100222.38
2023-12-09T19:01:05.028Z,100218.94
2023-12-09T19:03:37.441Z,100221.50
2023-12-09T19:06:05.067Z,100220.69
2023-12-09T19:08:32.582Z,100218.09
2023-12-09T19:10:59.074Z,100216.34
2023-12-09T19:13:25.680Z,100216.41
2023-12-09T19:15:52.446Z,100208.66
2023-12-09T19:18:19.233Z,100198.34
2023-12-09T19:20:45.983Z,100184.59
2023-12-09T19:23:12.573Z,100193.19
2023-12-09T19:25:39.086Z,100194.88
2023-12-09T19:28:05.618Z,100191.44
2023-12-09T19:30:32.298Z,100195.75
2023-12-09T19:32:59.723Z,100194.91
2023-12-09T19:35:29.061Z,100199.19
2023-12-09T19:37:56.755Z,100194.06
2023-12-09T19:40:23.477Z,100194.03
2023-12-09T19:42:52.460Z,100188.88
2023-12-09T19:45:20.355Z,100190.63
2023-12-09T19:47:47.054Z,100176.84
2023-12-09T19:50:14.156Z,100169.13
2023-12-09T19:52:40.726Z,100164.88
2023-12-09T19:55:07.387Z,100164.00
2023-12-09T19:57:33.932Z,100161.44
2023-12-09T20:00:00.621Z,100160.56
2023-12-09T20:02:27.355Z,100146.81
2023-12-09T20:04:54.006Z,100155.41
2023-12-09T20:07:20.757Z,100154.53
2023-12-09T20:09:49.478Z,100161.41
2023-12-09T20:12:16.018Z,100164.00
2023-12-09T20:14:42.595Z,100160.53
2023-12-09T20:17:09.145Z,100163.97
2023-12-09T20:19:39.006Z,100157.97
2023-12-09T20:22:05.720Z,100152.00
2023-12-09T20:24:32.299Z,100143.41
2023-12-09T20:26:59.170Z,100144.25
2023-12-09T20:29:25.698Z,100144.22
2023-12-09T20:31:52.265Z,100145.06
2023-12-09T20:34:19.900Z,100138.22
2023-12-09T20:36:47.048Z,100132.22
2023-12-09T20:39:13.680Z,100127.91
2023-12-09T20:41:42.925Z,100127.91
2023-12-09T20:44:09.466Z,100125.34
2023-12-09T20:46:36.007Z,100124.50
2023-12-09T20:49:02.636Z,100121.91
2023-12-09T20:51:30.411Z,100110.72
2023-12-09T20:53:56.926Z,100108.16
2023-12-09T20:56:23.475Z,100109.88
2023-12-09T20:58:50.016Z,100109.88
2023-12-09T21:01:16.911Z,100104.72
2023-12-09T21:03:43.810Z,100104.72
2023-12-09T21:06:10.870Z,100106.44
2023-12-09T21:08:40.199Z,100098.72
2023-12-09T21:11:06.929Z,100101.31
2023-12-09T21:13:33.453Z,100091.81
2023-12-09T21:16:00.551Z,100101.28
2023-12-09T21:18:27.235Z,100098.72
2023-12-09T21:20:54.310Z,100106.44
2023-12-09T21:23:20.998Z,100111.63
2023-12-09T21:25:49.224Z,100111.59
2023-12-09T21:28:15.738Z,100112.44
2023-12-09T21:30:43.368Z,100115.91
2023-12-09T21:33:10.127Z,100119.34
2023-12-09T21:35:36.710Z,100115.03
2023-12-09T21:38:03.996Z,100110.75
2023-12-09T21:40:32.355Z,100112.47
2023-12-09T21:42:59.011Z,100108.19
2023-12-09T21:45:26.258Z,100103.88
2023-12-09T21:47:55.962Z,100112.47
2023-12-09T21:50:23.789Z,100090.13
2023-12-09T21:52:50.790Z,100091.84
2023-12-09T21:55:17.260Z,100085.81
2023-12-09T21:57:43.930Z,100077.22
2023-12-09T22:00:10.871Z,100067.75
2023-12-09T22:02:39.403Z,100075.50
2023-12-09T22:05:06.334Z,100063.44
2023-12-09T22:07:32.940Z,100060.03
2023-12-09T22:09:59.393Z,100059.16
2023-12-09T22:12:26.351Z,100050.56
2023-12-09T22:14:53.146Z,100049.69
2023-12-09T22:17:19.643Z,100048.84
2023-12-09T22:19:46.497Z,100052.28
2023-12-09T22:22:12.988Z,100053.97
2023-12-09T22:24:39.714Z,100042.81
2023-12-09T22:27:07.741Z,100029.06
2023-12-09T22:29:36.058Z,100023.03
2023-12-09T22:32:02.579Z,100023.88
2023-12-09T22:34:29.500Z,100020.47
2023-12-09T22:36:57.112Z,100026.50
2023-12-09T22:39:23.825Z,100031.66
2023-12-09T22:41:50.358Z,100023.94
2023-12-09T22:44:16.896Z,100016.19
2023-12-09T22:46:43.960Z,100003.25
2023-12-09T22:49:10.676Z,100000.69
2023-12-09T22:51:37.639Z,99992.94
2023-12-09T22:54:04.244Z,99987.78
2023-12-09T22:56:33.493Z,99986.91
2023-12-09T22:59:00.253Z,99977.47
2023-12-09T23:01:27.448Z,99973.16
2023-12-09T23:03:54.143Z,99976.59
2023-12-09T23:06:20.942Z,99972.28
2023-12-09T23:08:47.940Z,99969.69
2023-12-09T23:11:14.729Z,99967.13
2023-12-09T23:13:41.223Z,99969.69
2023-12-09T23:16:09.267Z,99967.09
2023-12-09T23:18:36.540Z,99964.56
2023-12-09T23:21:03.632Z,99974.84
2023-12-09T23:23:30.103Z,99967.97
2023-12-09T23:25:56.686Z,99961.06
2023-12-09T23:28:23.480Z,99962.81
2023-12-09T23:30:50.335Z,99966.25
2023-12-09T23:33:17.007Z,99968.84
2023-12-09T23:35:43.675Z,99974.00
2023-12-09T23:38:10.141Z,99984.31
2023-12-09T23:40:39.412Z,99982.59
2023-12-09T23:43:05.964Z,99987.72
2023-12-09T23:45:32.675Z,99992.03
2023-12-09T23:47:59.521Z,99990.31
2023-12-09T23:50:26.160Z,99995.47
2023-12-09T23:52:53.074Z,99990.31
2023-12-09T23:55:19.536Z,99977.41
2023-12-09T23:57:46.186Z,99992.88
